createdAt,value
2024-01-12T00:04:48.827Z,103298.75
2024-01-12T00:10:10.977Z,103292.94
2024-01-12T00:15:32.898Z,103283.41
2024-01-12T00:20:55.137Z,103285.69
2024-01-12T00:26:17.374Z,103284.34
2024-01-12T00:31:39.222Z,103282.28
2024-01-12T00:37:01.601Z,103290.09
2024-01-12T00:42:23.976Z,103304.50
2024-01-12T00:47:46.073Z,103294.78
2024-01-12T00:53:07.955Z,103307.09
2024-01-12T00:58:30.516Z,103300.19
2024-01-12T01:03:52.501Z,103315.25
2024-01-12T01:09:14.531Z,103295.53
2024-01-12T01:14:36.632Z,103297.81
2024-01-12T01:19:58.574Z,103307.34
2024-01-12T01:25:20.464Z,103310.47
2024-01-12T01:30:42.416Z,103303.41
2024-01-12T01:36:04.575Z,103307.53
2024-01-12T01:41:26.494Z,103318.13
2024-01-12T01:46:48.683Z,103325.72
2024-01-12T01:52:11.380Z,103325.03
2024-01-12T01:57:34.354Z,103341.97
2024-01-12T02:02:56.755Z,103333.03
2024-01-12T02:08:18.839Z,103330.59
2024-01-12T02:13:40.840Z,103334.59
2024-01-12T02:19:03.220Z,103338.56
2024-01-12T02:24:25.171Z,103330.44
2024-01-12T02:29:47.769Z,103318.88
2024-01-12T02:35:09.717Z,103311.97
2024-01-12T02:40:31.667Z,103308.34
2024-01-12T02:45:53.933Z,103308.50
2024-01-12T02:51:15.853Z,103299.50
2024-01-12T02:56:37.797Z,103288.84
2024-01-12T03:01:59.919Z,103290.91
2024-01-12T03:07:21.776Z,103287.44
2024-01-12T03:12:43.749Z,103292.97
2024-01-12T03:18:06.629Z,103282.44
2024-01-12T03:23:28.712Z,103272.91
2024-01-12T03:28:50.641Z,103270.59
2024-01-12T03:34:12.716Z,103268.66
2024-01-12T03:39:34.709Z,103278.84
2024-01-12T03:44:56.620Z,103274.50
2024-01-12T03:50:18.578Z,103272.59
2024-01-12T03:55:40.507Z,103265.50
2024-01-12T04:01:06.782Z,103274.00
2024-01-12T04:06:28.809Z,103262.78
2024-01-12T04:11:50.818Z,103272.47
2024-01-12T04:17:13.234Z,103278.34
2024-01-12T04:22:35.403Z,103268.53
2024-01-12T04:27:57.262Z,103267.00
2024-01-12T04:33:19.238Z,103266.28
2024-01-12T04:38:41.270Z,103249.00
2024-01-12T04:44:03.201Z,103248.31
2024-01-12T04:49:25.178Z,103245.94
2024-01-12T04:54:47.088Z,103245.25
2024-01-12T05:00:09.590Z,103232.81
2024-01-12T05:05:31.579Z,103249.75
2024-01-12T05:10:56.001Z,103251.84
2024-01-12T05:16:18.009Z,103259.47
2024-01-12T05:21:40.070Z,103274.66
2024-01-12T05:27:02.101Z,103276.75
2024-01-12T05:32:24.111Z,103289.03
2024-01-12T05:37:46.026Z,103290.25
2024-01-12T05:43:07.903Z,103288.50
2024-01-12T05:48:29.942Z,103280.56
2024-01-12T05:53:52.099Z,103262.25
2024-01-12T05:59:14.424Z,103256.72
2024-01-12T06:04:36.311Z,103272.59
2024-01-12T06:09:58.211Z,103267.44
2024-01-12T06:15:20.262Z,103271.91
2024-01-12T06:20:42.103Z,103272.78
2024-01-12T06:26:05.541Z,103280.19
2024-01-12T06:31:33.647Z,103292.47
2024-01-12T06:36:57.764Z,103287.97
2024-01-12T06:42:19.633Z,103285.38
2024-01-12T06:47:41.915Z,103297.47
2024-01-12T06:53:10.078Z,103290.22
2024-01-12T06:58:31.928Z,103302.50
2024-01-12T07:03:53.941Z,103313.56
2024-01-12T07:09:15.853Z,103312.66
2024-01-12T07:14:37.837Z,103311.97
2024-01-12T07:20:00.093Z,103317.50
2024-01-12T07:25:22.083Z,103327.88
2024-01-12T07:30:43.964Z,103321.66
2024-01-12T07:36:06.421Z,103334.59
2024-01-12T07:41:28.658Z,103324.78
2024-01-12T07:46:50.634Z,103317.50
2024-01-12T07:52:16.294Z,103315.78
2024-01-12T07:57:41.039Z,103330.63
2024-01-12T08:03:04.241Z,103324.41
2024-01-12T08:08:26.134Z,103319.06
2024-01-12T08:13:48.101Z,103317.53
2024-01-12T08:19:10.026Z,103324.09
2024-01-12T08:24:32.128Z,103313.38
2024-01-12T08:29:54.458Z,103312.66
2024-01-12T08:35:16.510Z,103308.19
2024-01-12T08:40:38.420Z,103306.44
2024-01-12T08:46:00.470Z,103305.78
2024-01-12T08:51:23.484Z,103305.78
2024-01-12T08:56:45.471Z,103308.69
2024-01-12T09:02:08.270Z,103314.41
2024-01-12T09:07:30.412Z,103312.69
2024-01-12T09:12:52.414Z,103317.50
2024-01-12T09:18:14.852Z,103329.59
2024-01-12T09:23:36.993Z,103340.81
2024-01-12T09:28:59.323Z,103331.66
2024-01-12T09:34:21.335Z,103335.44
2024-01-12T09:39:43.384Z,103325.44
2024-01-12T09:45:08.462Z,103329.06
2024-01-12T09:50:32.024Z,103332.00
2024-01-12T09:56:03.386Z,103337.53
2024-01-12T10:01:29.485Z,103338.38
2024-01-12T10:06:51.625Z,103339.59
2024-01-12T10:12:13.573Z,103333.59
2024-01-12T10:17:36.667Z,103327.53
2024-01-12T10:22:59.478Z,103341.69
2024-01-12T10:28:21.392Z,103335.13
2024-01-12T10:33:44.694Z,103330.66
2024-01-12T10:39:11.277Z,103335.81
2024-01-12T10:44:36.623Z,103318.19
2024-01-12T10:50:08.040Z,103298.00
2024-01-12T10:55:43.097Z,103296.44
2024-01-12T11:01:05.601Z,103291.44
2024-01-12T11:06:29.714Z,103296.59
2024-01-12T11:12:30.859Z,103291.59
2024-01-12T11:17:52.962Z,103294.91
2024-01-12T11:23:14.949Z,103281.25
2024-01-12T11:28:38.428Z,103292.47
2024-01-12T11:34:04.747Z,103270.53
2024-01-12T11:39:27.066Z,103276.44
2024-01-12T11:44:49.020Z,103273.81
2024-01-12T11:50:14.206Z,103266.41
2024-01-12T11:55:39.149Z,103266.75
2024-01-12T12:01:02.321Z,103263.13
2024-01-12T12:06:24.407Z,103259.69
2024-01-12T12:11:47.256Z,103257.06
2024-01-12T12:17:09.530Z,103264.69
2024-01-12T12:22:31.696Z,103259.31
2024-01-12T12:27:53.896Z,103257.78
2024-01-12T12:33:16.029Z,103248.81
2024-01-12T12:38:39.300Z,103249.13
2024-01-12T12:44:01.463Z,103246.56
2024-01-12T12:49:23.494Z,103236.56
2024-01-12T12:54:45.832Z,103220.16
2024-01-12T13:00:12.073Z,103213.94
2024-01-12T13:05:38.019Z,103204.97
2024-01-12T13:11:00.090Z,103191.50
2024-01-12T13:16:22.249Z,103190.81
2024-01-12T13:21:45.315Z,103179.94
2024-01-12T13:27:07.238Z,103187.38
2024-01-12T13:32:30.241Z,103184.97
2024-01-12T13:37:52.261Z,103170.47
2024-01-12T13:43:14.289Z,103184.25
2024-01-12T13:48:39.302Z,103172.53
2024-01-12T13:54:05.137Z,103179.09
2024-01-12T13:59:27.419Z,103172.03
2024-01-12T14:05:00.430Z,103167.53
2024-01-12T14:10:27.807Z,103172.03
2024-01-12T14:15:49.818Z,103166.81
2024-01-12T14:21:11.808Z,103155.25
2024-01-12T14:26:33.875Z,103156.25
2024-01-12T14:31:56.544Z,103131.72
2024-01-12T14:37:18.776Z,103138.06
2024-01-12T14:42:41.100Z,103121.63
2024-01-12T14:48:08.971Z,103122.31
2024-01-12T14:53:38.716Z,103121.28
2024-01-12T14:59:03.126Z,103122.50
2024-01-12T15:04:25.085Z,103123.88
2024-01-12T15:09:47.142Z,103136.31
2024-01-12T15:15:10.507Z,103126.84
2024-01-12T15:20:33.134Z,103130.16
2024-01-12T15:25:58.032Z,103126.03
2024-01-12T15:31:20.386Z,103127.22
2024-01-12T15:36:42.763Z,103134.84
2024-01-12T15:42:04.772Z,103140.38
2024-01-12T15:47:26.791Z,103147.09
2024-01-12T15:52:48.764Z,103139.00
2024-01-12T15:58:10.644Z,103132.41
2024-01-12T16:03:32.696Z,103135.13
2024-01-12T16:08:54.916Z,103131.16
2024-01-12T16:14:16.889Z,103126.41
2024-01-12T16:19:43.133Z,103128.69
2024-01-12T16:25:05.658Z,103120.91
2024-01-12T16:30:27.795Z,103123.41
2024-01-12T16:35:49.804Z,103117.44
2024-01-12T16:41:16.461Z,103121.91
2024-01-12T16:46:38.306Z,103108.69
2024-01-12T16:52:00.150Z,103119.69
2024-01-12T17:02:43.954Z,103109.81
2024-01-12T17:08:06.149Z,103111.56
2024-01-12T17:13:28.551Z,103111.41
2024-01-12T17:18:50.592Z,103107.47
2024-01-12T17:24:14.906Z,103099.44
2024-01-12T17:29:36.934Z,103097.13
2024-01-12T17:34:58.856Z,103100.63
2024-01-12T17:40:20.822Z,103103.69
2024-01-12T17:45:42.827Z,103103.13
2024-01-12T17:51:04.720Z,103095.22
2024-01-12T17:56:28.649Z,103093.88
2024-01-12T18:01:50.493Z,103085.28
2024-01-12T18:07:12.428Z,103083.03
2024-01-12T18:12:34.499Z,103077.06
2024-01-12T18:17:56.496Z,103077.72
2024-01-12T18:23:18.474Z,103076.84
2024-01-12T18:28:40.423Z,103078.47
2024-01-12T18:34:02.376Z,103092.06
2024-01-12T18:39:24.316Z,103095.38
2024-01-12T18:44:46.156Z,103097.88
2024-01-12T18:50:09.603Z,103092.31
2024-01-12T18:55:32.063Z,103091.16
2024-01-12T19:00:53.971Z,103091.75
2024-01-12T19:06:15.931Z,103090.38
2024-01-12T19:11:37.846Z,103100.44
2024-01-12T19:16:59.848Z,103089.75
2024-01-12T19:22:21.686Z,103085.22
2024-01-12T19:27:43.575Z,103083.19
2024-01-12T19:33:05.866Z,103077.38
2024-01-12T19:38:27.878Z,103063.66
2024-01-12T19:43:50.044Z,103066.03
2024-01-12T19:49:12.209Z,103050.69
2024-01-12T19:54:34.191Z,103044.28
2024-01-12T19:59:56.295Z,103045.63
2024-01-12T20:05:18.186Z,103037.53
2024-01-12T20:10:40.140Z,103038.81
2024-01-12T20:16:02.923Z,103034.31
2024-01-12T20:21:25.733Z,103028.13
2024-01-12T20:26:47.744Z,103033.06
2024-01-12T20:32:09.797Z,103024.09
2024-01-12T20:37:34.210Z,103027.34
2024-01-12T20:42:56.066Z,103020.97
2024-01-12T20:48:19.282Z,103015.06
2024-01-12T20:53:41.268Z,103019.34
2024-01-12T20:59:03.247Z,103017.22
2024-01-12T21:04:25.189Z,103017.44
2024-01-12T21:09:47.148Z,103014.22
2024-01-12T21:15:09.716Z,103012.50
2024-01-12T21:20:31.680Z,103005.59
2024-01-12T21:25:53.626Z,103011.09
2024-01-12T21:31:15.581Z,102997.38
2024-01-12T21:36:37.957Z,102993.69
2024-01-12T21:41:59.802Z,102987.44
2024-01-12T21:47:22.008Z,102990.16
2024-01-12T21:52:43.891Z,102977.19
2024-01-12T21:58:08.392Z,102976.47
2024-01-12T22:03:30.400Z,102968.66
2024-01-12T22:08:52.488Z,102960.66
2024-01-12T22:14:14.421Z,102960.72
2024-01-12T22:19:36.366Z,102953.78
2024-01-12T22:24:58.516Z,102954.53
2024-01-12T22:30:21.358Z,102950.56
2024-01-12T22:35:43.940Z,102940.66
2024-01-12T22:41:05.977Z,102928.19
2024-01-12T22:46:28.046Z,102929.38
2024-01-12T22:51:49.900Z,102930.56
2024-01-12T22:57:11.835Z,102930.47
2024-01-12T23:02:36.659Z,102923.97
2024-01-12T23:07:58.896Z,102921.31
2024-01-12T23:13:20.750Z,102909.31
2024-01-12T23:18:44.434Z,102914.56
2024-01-12T23:24:06.636Z,102906.16
2024-01-12T23:29:32.429Z,102904.00
2024-01-12T23:34:57.730Z,102894.53
2024-01-12T23:40:19.896Z,102881.50
2024-01-12T23:45:42.058Z,102873.94
2024-01-12T23:51:04.134Z,102870.72
2024-01-12T23:56:26.020Z,102874.91
